Time;durP1;ratioP1;P1;durP2;ratioP2;P2;SDS_P1;SDS_P2;PMS_P1;PMS_P2;Temp;Humidity;BMP_temperature;BMP_pressure;BME280_temperature;BME280_humidity;BME280_pressure;Samples;Min_cycle;Max_cycle;Signal;HPM_P1;HPM_P2
2022/10/22 00:00:42;;;;;;;9.50;8.60;;;14.60;99.90;;;;;;5088999;28;20232;-74
2022/10/22 00:03:10;;;;;;;8.80;8.00;;;14.60;99.90;;;;;;5085455;28;20202;-76
2022/10/22 00:05:37;;;;;;;11.00;8.65;;;14.60;99.90;;;;;;5086910;28;20218;-73
2022/10/22 00:08:04;;;;;;;9.23;8.32;;;14.60;99.90;;;;;;5070711;28;20267;-73
2022/10/22 00:10:32;;;;;;;9.20;7.50;;;14.60;99.90;;;;;;5089811;28;20213;-75
2022/10/22 00:12:59;;;;;;;8.32;7.40;;;14.60;99.90;;;;;;5084233;28;20213;-74
2022/10/22 00:15:27;;;;;;;9.40;8.13;;;14.60;99.90;;;;;;5087697;28;20225;-73
2022/10/22 00:17:56;;;;;;;12.05;10.88;;;14.70;99.90;;;;;;5085888;28;20225;-72
2022/10/22 00:20:24;;;;;;;18.15;10.32;;;14.70;99.90;;;;;;5088891;28;20705;-73
2022/10/22 00:22:51;;;;;;;11.50;10.30;;;14.60;99.90;;;;;;5087496;28;20214;-75
2022/10/22 00:25:19;;;;;;;10.23;9.23;;;14.60;99.90;;;;;;5079725;28;20378;-73
2022/10/22 00:27:46;;;;;;;9.82;8.93;;;14.50;99.90;;;;;;5088864;28;20268;-72
2022/10/22 00:30:14;;;;;;;9.20;8.30;;;14.50;99.90;;;;;;5088247;28;20221;-73
2022/10/22 00:32:41;;;;;;;8.35;7.47;;;14.50;99.90;;;;;;5068310;28;20216;-72
2022/10/22 00:35:10;;;;;;;9.50;8.35;;;14.50;99.90;;;;;;5075780;28;20220;-72
2022/10/22 00:37:38;;;;;;;8.80;7.90;;;14.50;99.90;;;;;;5087586;28;20224;-72
2022/10/22 00:40:07;;;;;;;11.55;9.02;;;14.50;99.90;;;;;;5073794;28;20225;-72
2022/10/22 00:42:34;;;;;;;11.40;9.23;;;14.50;99.90;;;;;;5087630;28;20619;-73
2022/10/22 00:45:16;;;;;;;9.40;8.25;;;14.50;99.90;;;;;;5086583;28;20217;-75
2022/10/22 00:47:46;;;;;;;11.15;9.20;;;14.50;99.90;;;;;;5085407;28;20300;-73
2022/10/22 00:50:20;;;;;;;9.52;8.57;;;14.50;99.90;;;;;;5073168;28;20636;-72
2022/10/22 00:52:48;;;;;;;8.90;7.82;;;14.50;99.90;;;;;;5074714;28;20201;-70
2022/10/22 00:55:15;;;;;;;9.60;8.60;;;14.50;99.90;;;;;;5086963;28;20217;-76
2022/10/22 00:57:43;;;;;;;10.43;9.43;;;14.50;99.90;;;;;;5089974;28;20621;-71
2022/10/22 01:00:12;;;;;;;12.15;10.95;;;14.50;99.90;;;;;;5085679;28;20218;-72
2022/10/22 01:02:39;;;;;;;12.00;10.80;;;14.40;99.90;;;;;;5089490;28;20205;-71
2022/10/22 01:05:08;;;;;;;11.70;10.57;;;14.40;99.90;;;;;;5072594;28;20217;-72
2022/10/22 01:07:42;;;;;;;12.43;11.15;;;14.30;99.90;;;;;;5087299;28;20224;-72
2022/10/22 01:10:17;;;;;;;10.63;9.63;;;14.40;99.90;;;;;;5070083;28;20354;-70
2022/10/22 01:12:51;;;;;;;10.40;9.20;;;14.40;99.90;;;;;;5081978;28;20213;-72
2022/10/22 01:15:29;;;;;;;11.10;10.02;;;14.40;99.90;;;;;;5088361;28;20217;-72
2022/10/22 01:18:01;;;;;;;9.55;8.65;;;14.40;99.90;;;;;;5089830;28;20213;-75
2022/10/22 01:20:54;;;;;;;8.00;7.30;;;14.40;99.90;;;;;;5071714;28;20225;-72
2022/10/22 01:23:47;;;;;;;8.88;8.07;;;14.40;99.90;;;;;;5082882;28;20217;-73
2022/10/22 01:26:25;;;;;;;8.35;7.55;;;14.50;99.90;;;;;;5086840;28;20225;-73
2022/10/22 01:29:00;;;;;;;13.48;12.18;;;14.40;99.90;;;;;;5072033;28;20342;-75
2022/10/22 01:31:32;;;;;;;10.02;9.05;;;14.40;99.90;;;;;;5088291;28;20983;-73
2022/10/22 01:34:00;;;;;;;8.68;7.88;;;14.40;99.90;;;;;;5069275;28;20224;-73
2022/10/22 01:36:31;;;;;;;9.10;8.20;;;14.40;99.90;;;;;;5088210;28;20213;-75
2022/10/22 01:39:01;;;;;;;10.10;9.07;;;14.40;99.90;;;;;;5089587;28;20213;-72
2022/10/22 01:41:29;;;;;;;8.88;8.10;;;14.40;99.90;;;;;;5086545;28;20217;-72
2022/10/22 01:43:58;;;;;;;7.30;6.60;;;14.40;99.90;;;;;;5088025;28;20190;-75
2022/10/22 01:46:28;;;;;;;7.72;7.03;;;14.40;99.90;;;;;;5084146;28;20635;-74
2022/10/22 01:49:15;;;;;;;12.68;8.77;;;14.50;99.90;;;;;;5086430;28;20214;-72
2022/10/22 01:51:57;;;;;;;13.65;11.95;;;14.40;99.90;;;;;;5089178;28;20219;-73
2022/10/22 01:54:37;;;;;;;14.15;12.73;;;14.40;99.90;;;;;;5086875;28;20221;-72
2022/10/22 01:57:11;;;;;;;14.52;13.05;;;14.30;99.90;;;;;;5074343;28;20674;-72
2022/10/22 01:59:51;;;;;;;12.65;11.35;;;14.20;99.90;;;;;;5068457;28;20616;-75
2022/10/22 02:02:30;;;;;;;12.48;11.18;;;14.20;99.90;;;;;;5087165;28;20199;-71
2022/10/22 02:05:03;;;;;;;13.07;11.77;;;14.20;99.90;;;;;;5085705;28;20213;-74
2022/10/22 02:07:36;;;;;;;11.57;10.38;;;14.30;99.90;;;;;;5070472;28;20220;-73
2022/10/22 02:10:06;;;;;;;9.90;8.90;;;14.30;99.90;;;;;;5087483;28;20217;-75
2022/10/22 02:12:35;;;;;;;10.55;9.48;;;14.30;99.90;;;;;;5081512;28;20658;-75
2022/10/22 02:15:05;;;;;;;11.15;10.05;;;14.30;99.90;;;;;;5086518;28;20221;-73
2022/10/22 02:17:35;;;;;;;12.30;11.10;;;14.30;99.90;;;;;;5088428;28;20221;-74
2022/10/22 02:20:06;;;;;;;12.07;10.98;;;14.30;99.90;;;;;;5084261;28;20925;-73
2022/10/22 02:22:35;;;;;;;14.00;12.57;;;14.30;99.90;;;;;;5071985;28;20594;-74
2022/10/22 02:25:03;;;;;;;14.80;13.30;;;14.30;99.90;;;;;;5084307;28;20652;-73
2022/10/22 02:27:35;;;;;;;14.90;13.40;;;14.30;99.90;;;;;;5085122;28;20206;-73
2022/10/22 02:30:07;;;;;;;14.25;12.75;;;14.30;99.90;;;;;;5085381;28;20220;-76
2022/10/22 02:32:38;;;;;;;12.68;11.48;;;14.20;99.90;;;;;;5086150;28;20266;-73
2022/10/22 02:35:08;;;;;;;13.70;12.40;;;14.20;99.90;;;;;;5087005;28;20217;-73
2022/10/22 02:37:35;;;;;;;14.02;12.63;;;14.20;99.90;;;;;;5084846;28;20739;-75
2022/10/22 02:40:03;;;;;;;13.43;12.13;;;14.20;99.90;;;;;;5086018;28;20224;-72
2022/10/22 02:42:31;;;;;;;15.32;13.85;;;14.20;99.90;;;;;;5069012;28;20212;-71
2022/10/22 02:44:58;;;;;;;15.50;13.88;;;14.20;99.90;;;;;;5085732;28;20772;-72
2022/10/22 02:47:27;;;;;;;16.10;14.25;;;14.20;99.90;;;;;;5088340;28;20594;-72
2022/10/22 02:49:55;;;;;;;15.50;13.73;;;14.20;99.90;;;;;;5085135;28;20225;-73
2022/10/22 02:52:22;;;;;;;14.43;12.70;;;14.20;99.90;;;;;;5074929;28;20197;-74
2022/10/22 02:54:49;;;;;;;13.63;12.27;;;14.20;99.90;;;;;;5085897;28;20224;-76
2022/10/22 02:57:17;;;;;;;13.13;11.82;;;14.20;99.90;;;;;;5074734;28;20220;-76
2022/10/22 02:59:44;;;;;;;14.27;12.80;;;14.10;99.90;;;;;;5075379;28;20217;-73
2022/10/22 03:02:12;;;;;;;12.02;10.80;;;14.20;99.90;;;;;;5092975;28;20205;-74
2022/10/22 03:04:41;;;;;;;13.38;11.98;;;14.10;99.90;;;;;;5076457;28;20212;-76
2022/10/22 03:07:08;;;;;;;17.08;15.27;;;14.20;99.90;;;;;;5086662;28;20197;-75
2022/10/22 03:09:36;;;;;;;14.77;13.25;;;14.10;99.90;;;;;;5069703;28;20197;-75
2022/10/22 03:12:04;;;;;;;14.70;13.20;;;14.10;99.90;;;;;;5087220;28;20196;-74
2022/10/22 03:14:31;;;;;;;14.00;12.60;;;14.10;99.90;;;;;;5081509;28;20753;-74
2022/10/22 03:16:59;;;;;;;13.45;12.15;;;14.10;99.90;;;;;;5067701;28;20208;-73
2022/10/22 03:19:26;;;;;;;12.45;11.15;;;14.10;99.90;;;;;;5080815;28;20190;-75
2022/10/22 03:21:59;;;;;;;12.52;10.85;;;14.10;99.90;;;;;;5086216;28;20216;-73
2022/10/22 03:24:31;;;;;;;12.30;11.10;;;14.20;99.90;;;;;;5093336;28;20215;-73
2022/10/22 03:26:59;;;;;;;13.27;11.88;;;14.20;99.90;;;;;;5090606;28;20201;-72
2022/10/22 03:29:27;;;;;;;14.35;12.48;;;14.20;99.90;;;;;;5092298;28;20239;-74
2022/10/22 03:31:55;;;;;;;13.85;12.45;;;14.20;99.90;;;;;;5091743;28;20204;-77
2022/10/22 03:34:23;;;;;;;14.15;12.68;;;14.20;99.90;;;;;;5090984;28;20583;-75
2022/10/22 03:36:51;;;;;;;12.27;11.07;;;14.20;99.90;;;;;;5078334;28;20693;-75
2022/10/22 03:39:23;;;;;;;11.77;10.68;;;14.20;99.90;;;;;;5088750;28;20221;-72
2022/10/22 03:41:51;;;;;;;13.07;11.77;;;14.20;99.90;;;;;;5090583;28;20214;-74
2022/10/22 03:44:20;;;;;;;12.05;10.85;;;14.20;99.90;;;;;;5089357;28;20197;-77
2022/10/22 03:46:48;;;;;;;12.02;10.82;;;14.20;99.90;;;;;;5073856;28;20225;-75
2022/10/22 03:49:15;;;;;;;10.73;9.73;;;14.20;99.90;;;;;;5070235;28;20214;-73
2022/10/22 03:51:43;;;;;;;12.02;10.93;;;14.20;99.90;;;;;;5089443;28;20209;-76
2022/10/22 03:54:10;;;;;;;11.75;10.55;;;14.20;99.90;;;;;;5088451;28;20222;-72
2022/10/22 03:56:41;;;;;;;10.88;9.77;;;14.30;99.90;;;;;;5087349;28;20596;-72
2022/10/22 03:59:08;;;;;;;11.27;10.20;;;14.20;99.90;;;;;;5088803;28;20832;-72
2022/10/22 04:01:35;;;;;;;11.10;10.00;;;14.20;99.90;;;;;;5087905;28;20226;-74
2022/10/22 04:04:03;;;;;;;9.30;8.40;;;14.30;99.90;;;;;;5091224;28;20259;-75
2022/10/22 04:06:31;;;;;;;8.85;8.05;;;14.30;99.90;;;;;;5051091;28;20214;-77
2022/10/22 04:08:59;;;;;;;8.35;7.55;;;14.20;99.90;;;;;;5086808;28;20224;-73
2022/10/22 04:11:27;;;;;;;9.02;8.23;;;14.20;99.90;;;;;;5085723;28;20696;-74
2022/10/22 04:13:56;;;;;;;8.30;7.53;;;14.20;99.90;;;;;;5088283;28;20205;-73
2022/10/22 04:16:24;;;;;;;7.75;7.05;;;14.20;99.90;;;;;;5090320;28;20229;-75
2022/10/22 04:18:51;;;;;;;25.73;7.63;;;14.20;99.90;;;;;;5088982;28;20634;-75
2022/10/22 04:21:21;;;;;;;6.43;5.88;;;14.20;99.90;;;;;;5089861;28;20221;-77
2022/10/22 04:23:50;;;;;;;13.90;6.07;;;14.10;99.90;;;;;;5073995;28;20202;-72
2022/10/22 04:26:19;;;;;;;5.95;4.70;;;14.10;99.90;;;;;;5086908;28;20213;-74
2022/10/22 04:28:48;;;;;;;4.68;4.28;;;14.00;99.90;;;;;;5089520;28;20702;-73
2022/10/22 04:31:19;;;;;;;4.93;4.53;;;14.00;99.90;;;;;;5085573;28;20216;-74
2022/10/22 04:33:47;;;;;;;7.57;4.30;;;14.00;99.90;;;;;;5085637;28;20206;-74
2022/10/22 04:36:17;;;;;;;31.33;6.75;;;14.00;99.90;;;;;;5084202;28;20225;-73
2022/10/22 04:38:45;;;;;;;5.88;5.38;;;14.00;99.90;;;;;;5082816;28;20718;-74
2022/10/22 04:41:15;;;;;;;9.25;5.78;;;14.00;99.90;;;;;;5066791;28;20213;-73
2022/10/22 04:43:43;;;;;;;7.18;6.57;;;14.00;99.90;;;;;;5069631;28;20225;-74
2022/10/22 04:46:12;;;;;;;5.95;5.45;;;13.90;99.90;;;;;;5071750;28;20247;-73
2022/10/22 04:48:43;;;;;;;5.60;5.18;;;13.90;99.90;;;;;;5088790;28;20217;-74
2022/10/22 04:51:13;;;;;;;5.57;5.18;;;13.90;99.90;;;;;;5087142;28;20213;-75
2022/10/22 04:53:41;;;;;;;5.40;4.90;;;13.90;99.90;;;;;;5089214;28;20201;-76
2022/10/22 04:56:11;;;;;;;4.90;4.53;;;13.80;99.90;;;;;;5071680;28;20602;-77
2022/10/22 04:58:39;;;;;;;4.53;4.07;;;13.80;99.90;;;;;;5089307;28;20593;-77
2022/10/22 05:01:11;;;;;;;4.35;4.05;;;13.80;99.90;;;;;;5087810;28;20217;-75
2022/10/22 05:03:40;;;;;;;40.97;7.00;;;13.80;99.90;;;;;;5086888;28;20674;-75
2022/10/22 05:06:09;;;;;;;78.72;8.15;;;13.80;99.90;;;;;;5092286;28;20230;-75
2022/10/22 05:08:37;;;;;;;4.60;4.30;;;13.70;99.90;;;;;;5087962;28;20228;-77
2022/10/22 05:11:12;;;;;;;4.18;3.88;;;13.60;99.90;;;;;;5087950;28;20221;-73
2022/10/22 05:13:39;;;;;;;4.63;3.83;;;13.60;99.90;;;;;;5087176;28;20634;-75
2022/10/22 05:16:07;;;;;;;4.93;3.38;;;13.60;99.90;;;;;;5087574;28;20245;-76
2022/10/22 05:18:35;;;;;;;7.90;3.80;;;13.50;99.90;;;;;;5088239;28;20225;-73
2022/10/22 05:21:05;;;;;;;5.97;3.67;;;13.50;99.90;;;;;;5087620;28;20571;-72
2022/10/22 05:23:32;;;;;;;58.80;5.80;;;13.50;99.90;;;;;;5082570;28;20210;-71
2022/10/22 05:26:03;;;;;;;86.03;7.05;;;13.50;99.90;;;;;;5086293;28;20213;-72
2022/10/22 05:28:31;;;;;;;16.70;5.10;;;13.40;99.90;;;;;;5085205;28;20296;-75
2022/10/22 05:30:59;;;;;;;23.45;4.18;;;13.30;99.90;;;;;;5089198;28;20228;-74
2022/10/22 05:33:28;;;;;;;3.53;3.30;;;13.30;99.90;;;;;;5071513;28;20228;-74
2022/10/22 05:35:56;;;;;;;3.05;2.85;;;13.30;99.90;;;;;;5073950;28;20229;-73
2022/10/22 05:38:25;;;;;;;2.53;2.42;;;13.30;99.90;;;;;;5088452;28;20214;-75
2022/10/22 05:41:00;;;;;;;2.45;2.35;;;13.40;99.90;;;;;;5088612;28;20221;-76
2022/10/22 05:43:28;;;;;;;2.30;2.20;;;13.50;99.90;;;;;;5087692;28;20243;-74
2022/10/22 05:45:56;;;;;;;2.10;2.00;;;13.50;99.90;;;;;;5051390;28;20227;-73
2022/10/22 05:48:24;;;;;;;1.92;1.83;;;13.60;99.90;;;;;;5071574;28;20217;-73
2022/10/22 05:50:51;;;;;;;2.72;2.53;;;13.60;99.90;;;;;;5088154;28;20213;-72
2022/10/22 05:53:19;;;;;;;2.10;2.00;;;13.60;99.90;;;;;;5087567;28;20213;-75
2022/10/22 05:55:48;;;;;;;2.15;2.05;;;13.60;99.90;;;;;;5087883;28;20235;-72
2022/10/22 05:58:15;;;;;;;2.15;2.05;;;13.60;99.90;;;;;;5071298;28;20705;-72
2022/10/22 06:00:43;;;;;;;2.50;2.30;;;13.60;99.90;;;;;;5087796;28;20213;-74
2022/10/22 06:03:10;;;;;;;2.53;2.40;;;13.60;99.90;;;;;;5072899;28;20260;-78
2022/10/22 06:05:38;;;;;;;2.83;2.63;;;13.60;99.90;;;;;;5084312;28;20221;-76
2022/10/22 06:08:06;;;;;;;2.53;2.33;;;13.70;99.90;;;;;;5057942;28;20586;-78
2022/10/22 06:10:34;;;;;;;2.30;2.20;;;13.70;99.90;;;;;;5086686;28;20213;-78
2022/10/22 06:13:06;;;;;;;1.90;1.80;;;13.70;99.90;;;;;;5086194;28;20201;-76
2022/10/22 06:15:34;;;;;;;1.90;1.80;;;13.80;99.90;;;;;;5080875;28;20221;-74
2022/10/22 06:18:02;;;;;;;1.60;1.50;;;13.80;99.90;;;;;;5085379;28;20885;-75
2022/10/22 06:20:29;;;;;;;1.70;1.60;;;13.90;99.90;;;;;;5083424;28;20228;-76
2022/10/22 06:22:56;;;;;;;1.92;1.83;;;13.90;99.90;;;;;;5087807;28;20613;-78
2022/10/22 06:25:24;;;;;;;1.83;1.73;;;13.90;99.90;;;;;;5083553;28;20214;-75
2022/10/22 06:27:51;;;;;;;2.15;2.05;;;13.80;99.90;;;;;;5084560;28;20569;-78
2022/10/22 06:30:20;;;;;;;2.00;1.90;;;13.80;99.90;;;;;;5055246;28;20241;-74
2022/10/22 06:32:48;;;;;;;1.90;1.80;;;13.80;99.90;;;;;;5084315;28;20665;-73
2022/10/22 06:35:15;;;;;;;1.80;1.70;;;13.80;99.90;;;;;;5087006;28;20232;-72
2022/10/22 06:37:42;;;;;;;1.90;1.80;;;13.90;99.90;;;;;;5081554;28;20221;-73
2022/10/22 06:40:11;;;;;;;1.90;1.80;;;13.90;99.90;;;;;;5072912;28;20221;-73
2022/10/22 06:42:38;;;;;;;1.73;1.63;;;13.90;99.90;;;;;;5087454;28;20193;-75
2022/10/22 06:45:07;;;;;;;2.05;1.95;;;13.90;99.90;;;;;;5084468;28;20214;-73
2022/10/22 06:47:37;;;;;;;1.55;1.45;;;14.00;99.90;;;;;;5075196;28;20623;-72
2022/10/22 06:50:05;;;;;;;1.65;1.55;;;14.00;99.90;;;;;;5081157;28;20218;-72
2022/10/22 06:52:32;;;;;;;1.50;1.40;;;14.00;99.90;;;;;;5085199;28;20962;-74
2022/10/22 06:55:00;;;;;;;1.58;1.48;;;14.00;99.90;;;;;;5068171;28;20225;-74
2022/10/22 06:57:27;;;;;;;95.20;6.35;;;14.00;99.90;;;;;;5081162;28;20221;-74
2022/10/22 06:59:55;;;;;;;2.05;1.92;;;14.10;99.90;;;;;;5069769;28;20228;-71
2022/10/22 07:02:24;;;;;;;1.98;1.88;;;14.00;99.90;;;;;;5080861;28;20195;-76
2022/10/22 07:04:53;;;;;;;2.53;2.33;;;14.00;99.90;;;;;;5071932;28;20213;-75
2022/10/22 07:07:21;;;;;;;2.35;2.25;;;14.00;99.90;;;;;;5083126;28;20217;-75
2022/10/22 07:09:48;;;;;;;2.08;1.95;;;14.00;99.90;;;;;;5068324;28;20225;-76
2022/10/22 07:12:16;;;;;;;1.92;1.83;;;14.00;99.90;;;;;;5084577;28;20186;-75
2022/10/22 07:14:46;;;;;;;1.85;1.75;;;14.00;99.90;;;;;;5078126;28;20213;-73
2022/10/22 07:17:14;;;;;;;1.92;1.83;;;14.00;99.90;;;;;;5084954;28;20197;-75
2022/10/22 07:19:42;;;;;;;1.88;1.77;;;14.00;99.90;;;;;;5051121;28;20226;-75
2022/10/22 07:22:11;;;;;;;1.73;1.63;;;14.00;99.90;;;;;;5051537;28;20199;-74
2022/10/22 07:24:39;;;;;;;1.75;1.65;;;14.00;99.90;;;;;;5082409;28;20204;-71
2022/10/22 07:27:07;;;;;;;2.13;2.03;;;14.10;99.90;;;;;;5071488;28;20197;-71
2022/10/22 07:29:36;;;;;;;2.20;2.10;;;14.10;99.90;;;;;;5065569;28;20197;-74
2022/10/22 07:32:04;;;;;;;2.55;2.35;;;14.20;99.90;;;;;;5082307;28;20219;-74
2022/10/22 07:34:31;;;;;;;2.63;2.42;;;14.20;99.90;;;;;;5081444;28;20201;-72
2022/10/22 07:36:59;;;;;;;2.70;2.50;;;14.20;99.90;;;;;;5079635;28;20209;-72
2022/10/22 07:39:27;;;;;;;4.70;3.22;;;14.30;99.90;;;;;;5080708;28;20251;-72
2022/10/22 07:41:55;;;;;;;3.00;2.70;;;14.50;99.90;;;;;;5079173;28;20708;-71
2022/10/22 07:44:22;;;;;;;3.42;2.83;;;14.70;99.90;;;;;;5080561;28;20576;-72
2022/10/22 07:46:50;;;;;;;3.05;2.80;;;14.80;99.90;;;;;;5078106;28;20193;-74
2022/10/22 07:49:17;;;;;;;2.90;2.67;;;14.90;99.90;;;;;;5082100;28;20739;-74
2022/10/22 07:51:44;;;;;;;3.10;2.90;;;15.00;99.90;;;;;;5081141;28;20246;-74
2022/10/22 07:54:12;;;;;;;3.55;3.25;;;15.00;99.90;;;;;;5082709;28;20204;-76
2022/10/22 07:56:41;;;;;;;3.25;3.05;;;14.90;99.90;;;;;;5081723;28;20221;-76
2022/10/22 07:59:08;;;;;;;3.08;2.88;;;15.00;99.90;;;;;;5083984;28;20898;-77
2022/10/22 08:01:36;;;;;;;3.03;2.83;;;15.00;99.90;;;;;;5079088;28;20218;-77
2022/10/22 08:04:03;;;;;;;2.80;2.60;;;15.00;99.90;;;;;;5066334;28;20224;-77
2022/10/22 08:06:30;;;;;;;2.72;2.53;;;15.00;99.90;;;;;;5075707;28;20225;-77
2022/10/22 08:08:58;;;;;;;3.00;2.80;;;15.00;99.90;;;;;;5085331;28;20618;-76
2022/10/22 08:11:25;;;;;;;2.67;2.47;;;15.10;99.90;;;;;;5090452;28;20560;-78
2022/10/22 08:13:54;;;;;;;2.70;2.50;;;15.20;99.90;;;;;;5072626;28;20195;-79
2022/10/22 08:16:22;;;;;;;4.13;3.17;;;15.20;99.90;;;;;;5069126;28;20233;-79
2022/10/22 08:18:50;;;;;;;3.08;2.88;;;15.20;99.90;;;;;;5082848;28;20230;-78
2022/10/22 08:21:17;;;;;;;3.20;3.00;;;15.10;99.90;;;;;;5081228;28;20708;-76
2022/10/22 08:23:45;;;;;;;88.30;6.95;;;14.90;99.90;;;;;;5086646;28;20198;-75
2022/10/22 08:26:13;;;;;;;6.43;3.80;;;14.80;99.90;;;;;;5087597;28;20210;-77
2022/10/22 08:28:40;;;;;;;68.05;7.18;;;14.70;99.90;;;;;;5075087;28;20247;-75
2022/10/22 08:31:10;;;;;;;9.20;4.18;;;14.50;99.90;;;;;;5087241;28;20221;-80
2022/10/22 08:33:38;;;;;;;8.25;4.05;;;14.40;99.90;;;;;;5090597;28;20576;-75
2022/10/22 08:36:07;;;;;;;27.60;4.25;;;14.30;99.90;;;;;;5087530;28;20648;-76
2022/10/22 08:38:35;;;;;;;5.32;3.47;;;14.30;99.90;;;;;;5073197;28;20764;-76
2022/10/22 08:41:10;;;;;;;75.82;6.18;;;14.20;99.90;;;;;;5086784;28;20350;-74
2022/10/22 08:44:12;;;;;;;166.20;10.55;;;14.20;99.90;;;;;;5087504;28;20197;-77
2022/10/22 08:47:13;;;;;;;88.50;6.50;;;14.10;99.90;;;;;;5084579;28;20719;-76
2022/10/22 08:49:43;;;;;;;4.55;3.80;;;14.10;99.90;;;;;;5071030;28;20224;-76
2022/10/22 08:52:14;;;;;;;46.53;5.15;;;14.00;99.90;;;;;;5072484;28;20760;-76
2022/10/22 08:54:50;;;;;;;8.10;4.13;;;13.90;99.90;;;;;;5084481;28;20359;-77
2022/10/22 08:57:35;;;;;;;20.13;5.45;;;13.90;99.90;;;;;;5086102;28;20213;-73
2022/10/22 09:00:07;;;;;;;46.78;7.15;;;13.80;99.90;;;;;;5073002;28;20214;-74
2022/10/22 09:02:47;;;;;;;57.33;6.75;;;13.70;99.90;;;;;;5050344;28;20202;-73
2022/10/22 09:05:30;;;;;;;16.27;4.13;;;13.70;99.90;;;;;;5083935;28;21342;-74
2022/10/22 09:07:57;;;;;;;6.88;5.10;;;13.70;99.90;;;;;;5074539;28;20634;-74
2022/10/22 09:10:28;;;;;;;48.55;7.35;;;13.60;99.90;;;;;;5085465;28;20221;-78
2022/10/22 09:12:55;;;;;;;3.97;3.65;;;13.60;99.90;;;;;;5075622;28;20198;-75
2022/10/22 09:15:23;;;;;;;17.33;5.28;;;13.60;99.90;;;;;;5086571;28;20218;-76
2022/10/22 09:18:03;;;;;;;94.72;9.23;;;13.60;99.90;;;;;;5087038;28;20214;-80
2022/10/22 09:20:38;;;;;;;110.75;10.07;;;13.60;99.90;;;;;;5064584;28;20627;-77
2022/10/22 09:23:26;;;;;;;90.18;8.13;;;13.60;99.90;;;;;;5085902;28;20197;-76
2022/10/22 09:25:54;;;;;;;93.35;7.13;;;13.50;99.90;;;;;;5071733;28;20225;-73
2022/10/22 09:28:21;;;;;;;19.83;3.85;;;13.40;99.90;;;;;;5082752;28;20210;-75
2022/10/22 09:30:49;;;;;;;3.72;3.33;;;13.40;99.90;;;;;;5071608;28;20225;-76
2022/10/22 09:33:21;;;;;;;3.17;2.90;;;13.30;99.90;;;;;;5085965;28;20197;-76
2022/10/22 09:35:53;;;;;;;2.90;2.70;;;13.30;99.90;;;;;;5074666;28;20226;-74
2022/10/22 09:38:23;;;;;;;2.45;2.25;;;13.30;99.90;;;;;;5086007;28;20220;-79
2022/10/22 09:40:52;;;;;;;3.70;2.75;;;13.40;99.90;;;;;;5057327;28;20237;-76
2022/10/22 09:43:20;;;;;;;2.70;2.50;;;13.40;99.90;;;;;;5090381;28;20205;-75
2022/10/22 09:45:49;;;;;;;2.67;2.45;;;13.40;99.90;;;;;;5067912;28;20225;-73
2022/10/22 09:48:25;;;;;;;4.10;2.85;;;13.40;99.90;;;;;;5073129;28;20262;-75
2022/10/22 09:50:59;;;;;;;2.60;2.40;;;13.40;99.90;;;;;;5083598;28;20282;-75
2022/10/22 09:53:29;;;;;;;2.50;2.30;;;13.40;99.90;;;;;;5071884;28;20193;-77
2022/10/22 09:55:59;;;;;;;2.45;2.33;;;13.40;99.90;;;;;;5084785;28;20225;-76
2022/10/22 09:58:27;;;;;;;2.78;2.58;;;13.40;99.90;;;;;;5075434;28;20683;-73
2022/10/22 10:00:57;;;;;;;2.00;1.90;;;13.40;99.90;;;;;;5068712;28;20267;-73
2022/10/22 10:03:28;;;;;;;1.90;1.80;;;13.40;99.90;;;;;;5086377;28;21021;-74
2022/10/22 10:05:58;;;;;;;1.83;1.73;;;13.50;99.90;;;;;;5085535;28;20258;-74
2022/10/22 10:08:27;;;;;;;2.00;1.90;;;13.50;99.90;;;;;;5086117;28;20217;-76
2022/10/22 10:10:59;;;;;;;2.17;2.08;;;13.50;99.90;;;;;;5075768;28;20287;-73
2022/10/22 10:13:46;;;;;;;2.25;1.83;;;13.50;99.90;;;;;;5085644;28;20688;-73
2022/10/22 10:16:27;;;;;;;1.90;1.80;;;13.50;99.90;;;;;;5084040;28;20227;-75
2022/10/22 10:19:12;;;;;;;1.73;1.63;;;13.50;99.90;;;;;;5086476;28;20970;-79
2022/10/22 10:21:49;;;;;;;2.00;1.90;;;13.60;99.90;;;;;;5083352;28;20676;-76
2022/10/22 10:24:27;;;;;;;2.33;2.22;;;13.60;99.90;;;;;;5084549;28;20201;-75
2022/10/22 10:26:59;;;;;;;1.80;1.70;;;13.70;99.90;;;;;;5086029;28;20219;-73
2022/10/22 10:29:50;;;;;;;2.38;2.28;;;13.70;99.90;;;;;;5069373;28;20201;-73
2022/10/22 10:32:29;;;;;;;4.13;3.58;;;13.70;99.90;;;;;;5085324;28;20224;-75
2022/10/22 10:35:09;;;;;;;6.20;5.13;;;13.60;99.90;;;;;;5083447;28;20232;-72
2022/10/22 10:37:42;;;;;;;5.82;5.00;;;13.60;99.90;;;;;;5085677;28;20225;-73
2022/10/22 10:40:20;;;;;;;4.80;4.40;;;13.60;99.90;;;;;;5085138;28;20225;-76
2022/10/22 10:42:55;;;;;;;4.18;3.80;;;13.60;99.90;;;;;;5073977;28;20247;-73
2022/10/22 10:45:30;;;;;;;3.92;3.50;;;13.60;99.90;;;;;;5056847;28;20216;-73
2022/10/22 10:48:16;;;;;;;3.85;3.28;;;13.60;99.90;;;;;;5069258;28;20209;-76
2022/10/22 10:50:56;;;;;;;2.75;2.55;;;13.70;99.90;;;;;;5088195;28;20558;-73
2022/10/22 10:53:33;;;;;;;3.00;2.70;;;13.70;99.90;;;;;;5086726;28;20852;-76
2022/10/22 10:56:11;;;;;;;2.50;2.33;;;13.80;99.90;;;;;;5080228;28;20222;-73
2022/10/22 10:58:48;;;;;;;2.70;2.50;;;13.80;99.90;;;;;;5053412;28;20717;-73
2022/10/22 11:01:27;;;;;;;2.28;2.08;;;13.90;99.90;;;;;;5080717;28;20220;-76
2022/10/22 11:04:28;;;;;;;2.28;2.17;;;14.00;99.90;;;;;;5085561;28;20892;-76
2022/10/22 11:07:02;;;;;;;1.90;1.80;;;14.10;99.90;;;;;;5066976;28;20224;-77
2022/10/22 11:09:36;;;;;;;1.95;1.83;;;14.20;99.90;;;;;;5052654;28;20693;-75
2022/10/22 11:12:10;;;;;;;2.08;1.98;;;14.30;99.90;;;;;;5082594;28;20194;-77
2022/10/22 11:14:49;;;;;;;2.10;1.90;;;14.30;99.90;;;;;;5061443;28;20714;-79
2022/10/22 11:17:18;;;;;;;2.15;2.05;;;14.40;99.90;;;;;;5081633;28;20220;-75
2022/10/22 11:19:52;;;;;;;2.50;2.30;;;14.40;99.90;;;;;;5082655;28;20620;-75
2022/10/22 11:22:28;;;;;;;3.22;2.92;;;14.40;99.90;;;;;;5083150;28;20209;-74
2022/10/22 11:25:04;;;;;;;3.17;2.83;;;14.40;99.90;;;;;;5082155;28;20586;-76
2022/10/22 11:27:37;;;;;;;3.78;2.72;;;14.50;99.90;;;;;;5081246;28;20209;-74
2022/10/22 11:30:11;;;;;;;3.00;2.70;;;14.50;99.90;;;;;;5057373;28;21003;-74
2022/10/22 11:32:41;;;;;;;3.17;2.88;;;14.60;99.90;;;;;;5077879;28;20593;-74
2022/10/22 11:35:15;;;;;;;8.05;3.10;;;14.70;99.90;;;;;;5078185;28;20224;-74
2022/10/22 11:37:46;;;;;;;4.72;4.22;;;14.70;99.90;;;;;;5083513;28;20240;-76
2022/10/22 11:40:18;;;;;;;6.72;5.60;;;14.80;99.90;;;;;;5063865;28;20218;-80
2022/10/22 11:42:49;;;;;;;6.57;4.57;;;14.80;99.90;;;;;;5082705;28;20828;-77
2022/10/22 11:45:31;;;;;;;4.90;4.30;;;14.90;99.90;;;;;;5074041;28;20222;-75
2022/10/22 11:48:07;;;;;;;4.03;3.22;;;15.00;99.90;;;;;;5091479;28;20206;-78
2022/10/22 11:50:53;;;;;;;3.20;2.88;;;15.00;99.90;;;;;;5090946;28;20245;-77
2022/10/22 11:53:37;;;;;;;2.55;2.35;;;15.00;99.90;;;;;;5069726;28;20197;-78
2022/10/22 11:56:25;;;;;;;2.05;1.95;;;15.00;99.90;;;;;;5087252;28;20775;-76
2022/10/22 11:58:55;;;;;;;2.33;2.13;;;14.80;99.90;;;;;;5085143;28;20225;-76
2022/10/22 12:01:28;;;;;;;1.98;1.88;;;14.80;99.90;;;;;;5082688;28;20225;-77
2022/10/22 12:04:20;;;;;;;1.90;1.80;;;14.90;99.90;;;;;;5082248;28;20198;-76
2022/10/22 12:06:57;;;;;;;1.95;1.80;;;15.00;99.90;;;;;;5083329;28;20236;-76
2022/10/22 12:09:29;;;;;;;2.00;1.90;;;15.20;99.90;;;;;;5082923;28;20202;-76
2022/10/22 12:12:12;;;;;;;2.38;2.05;;;15.40;99.90;;;;;;5081477;28;20221;-76
2022/10/22 12:14:53;;;;;;;2.03;1.92;;;15.40;99.90;;;;;;5082483;28;20202;-76
2022/10/22 12:17:23;;;;;;;2.17;1.98;;;15.60;99.90;;;;;;5084846;28;20225;-75
2022/10/22 12:19:57;;;;;;;2.38;2.17;;;15.70;99.90;;;;;;5069779;28;20749;-74
2022/10/22 12:22:27;;;;;;;2.08;1.92;;;15.80;99.90;;;;;;5086897;28;20201;-74
2022/10/22 12:25:00;;;;;;;2.70;2.50;;;15.80;99.90;;;;;;5087016;28;20771;-76
2022/10/22 12:27:34;;;;;;;3.92;2.30;;;15.80;99.90;;;;;;5086301;28;20224;-79
2022/10/22 12:30:04;;;;;;;2.95;2.15;;;15.80;99.90;;;;;;5082653;28;20227;-75
2022/10/22 12:32:35;;;;;;;2.70;2.25;;;15.80;99.90;;;;;;5083197;28;20217;-75
2022/10/22 12:35:06;;;;;;;2.95;2.50;;;16.00;99.90;;;;;;5080350;28;20217;-71
2022/10/22 12:37:36;;;;;;;2.28;2.08;;;16.30;99.90;;;;;;5080794;28;20623;-71
2022/10/22 12:40:18;;;;;;;2.28;2.08;;;16.80;99.90;;;;;;5083664;28;20217;-71
2022/10/22 12:42:50;;;;;;;2.55;1.90;;;17.20;99.90;;;;;;5089702;28;20608;-72
2022/10/22 12:45:18;;;;;;;4.35;1.73;;;17.50;99.90;;;;;;5086438;28;20217;-74
2022/10/22 12:47:50;;;;;;;2.35;1.80;;;17.80;99.90;;;;;;5089973;28;20213;-74
2022/10/22 12:50:21;;;;;;;2.85;1.60;;;18.20;99.90;;;;;;5089873;28;20224;-73
2022/10/22 12:52:49;;;;;;;1.75;1.65;;;18.50;99.90;;;;;;5087739;28;20194;-74
2022/10/22 12:55:24;;;;;;;1.80;1.70;;;18.70;99.90;;;;;;5089039;28;20590;-73
2022/10/22 12:57:52;;;;;;;1.60;1.50;;;18.80;99.90;;;;;;5082239;28;20221;-77
2022/10/22 13:00:29;;;;;;;1.98;1.48;;;18.80;99.90;;;;;;5086846;28;20213;-72